createdAt,value
2017-04-11T00:00:03.004Z,0
2017-04-11T00:01:03.059Z,0
2017-04-11T00:02:03.112Z,0
2017-04-11T00:03:03.173Z,0
2017-04-11T00:04:03.226Z,0
2017-04-11T00:05:03.280Z,0
2017-04-11T00:06:03.329Z,0
2017-04-11T00:07:03.384Z,0
2017-04-11T00:08:03.434Z,0
2017-04-11T00:09:03.487Z,0
2017-04-11T00:10:03.542Z,0
2017-04-11T00:11:03.598Z,0
2017-04-11T00:12:03.647Z,0
2017-04-11T00:13:03.701Z,0
2017-04-11T00:14:03.753Z,0
2017-04-11T00:15:03.813Z,0
2017-04-11T00:16:03.865Z,0
2017-04-11T00:17:03.917Z,0
2017-04-11T00:18:03.971Z,0
2017-04-11T00:19:04.024Z,0
2017-04-11T00:20:04.078Z,0
2017-04-11T00:21:04.333Z,0
2017-04-11T00:22:04.180Z,0
2017-04-11T00:23:04.242Z,0
2017-04-11T00:24:04.292Z,0
2017-04-11T00:25:04.547Z,0
2017-04-11T00:26:04.399Z,0
2017-04-11T00:27:04.452Z,0
2017-04-11T00:28:04.505Z,0
2017-04-11T00:29:04.561Z,0
2017-04-11T00:30:04.610Z,0
2017-04-11T00:31:04.664Z,0
2017-04-11T00:32:04.719Z,0
2017-04-11T00:33:04.771Z,0
2017-04-11T00:34:04.823Z,0
2017-04-11T00:35:04.881Z,0
2017-04-11T00:36:04.932Z,0
2017-04-11T00:37:04.983Z,0
2017-04-11T00:38:05.033Z,0
2017-04-11T00:39:05.099Z,0
2017-04-11T00:40:05.144Z,0
2017-04-11T00:41:05.194Z,0
2017-04-11T00:42:05.247Z,0
2017-04-11T00:43:05.305Z,0
2017-04-11T00:44:05.360Z,0
2017-04-11T00:45:05.108Z,0
2017-04-11T00:46:05.460Z,0
2017-04-11T00:47:05.517Z,0
2017-04-11T00:48:05.570Z,0
2017-04-11T00:49:05.621Z,0
2017-04-11T00:50:05.673Z,0
2017-04-11T00:51:05.731Z,0
2017-04-11T00:52:05.778Z,0
2017-04-11T00:53:05.838Z,0
2017-04-11T00:54:05.888Z,0
2017-04-11T00:55:06.156Z,0
2017-04-11T00:56:05.996Z,0
2017-04-11T00:57:05.746Z,0
2017-04-11T00:58:06.098Z,0
2017-04-11T00:59:19.545Z,0
2017-04-11T01:00:19.850Z,0
2017-04-11T01:01:06.262Z,0
2017-04-11T01:02:06.317Z,0
2017-04-11T01:03:06.364Z,0
2017-04-11T01:04:06.428Z,0
2017-04-11T01:05:06.375Z,0
2017-04-11T01:06:06.527Z,0
2017-04-11T01:07:06.579Z,0
2017-04-11T01:08:06.669Z,0
2017-04-11T01:09:06.682Z,0
2017-04-11T01:10:06.743Z,0
2017-04-11T01:11:06.789Z,0
2017-04-11T01:12:06.847Z,0
2017-04-11T01:13:06.896Z,0
2017-04-11T01:14:06.954Z,0
2017-04-11T01:15:07.003Z,0
2017-04-11T01:16:07.056Z,0
2017-04-11T01:17:07.110Z,0
2017-04-11T01:18:07.161Z,0
2017-04-11T01:19:07.217Z,0
2017-04-11T01:20:07.273Z,0
2017-04-11T01:21:07.318Z,0
2017-04-11T01:22:07.431Z,0
2017-04-11T01:23:07.426Z,0
2017-04-11T01:24:07.492Z,0
2017-04-11T01:25:07.229Z,0
2017-04-11T01:26:07.585Z,0
2017-04-11T01:27:07.646Z,0
2017-04-11T01:28:07.695Z,0
2017-04-11T01:29:07.746Z,0
2017-04-11T01:30:08.002Z,0
2017-04-11T01:31:07.848Z,0
2017-04-11T01:32:07.599Z,0
2017-04-11T01:33:07.957Z,0
2017-04-11T01:34:08.209Z,0
2017-04-11T01:35:08.262Z,0
2017-04-11T01:36:08.115Z,0
2017-04-11T01:37:08.204Z,0
2017-04-11T01:38:08.222Z,0
2017-04-11T01:39:08.280Z,0
2017-04-11T01:40:08.329Z,0
2017-04-11T01:41:08.384Z,0
2017-04-11T01:42:08.437Z,0
2017-04-11T01:43:08.496Z,0
2017-04-11T01:44:08.579Z,0
2017-04-11T01:45:08.292Z,0
2017-04-11T01:46:08.649Z,0
2017-04-11T01:47:08.705Z,0
2017-04-11T01:48:08.754Z,0
2017-04-11T01:49:08.806Z,0
2017-04-11T01:50:08.856Z,0
2017-04-11T01:51:08.911Z,0
2017-04-11T01:52:08.967Z,0
2017-04-11T01:53:09.024Z,0
2017-04-11T01:54:09.075Z,0
2017-04-11T01:55:09.122Z,0
2017-04-11T01:56:09.181Z,0
2017-04-11T01:57:09.225Z,0
2017-04-11T01:58:09.283Z,0
2017-04-11T01:59:09.346Z,0
2017-04-11T02:00:09.085Z,0
2017-04-11T02:01:09.442Z,0
2017-04-11T02:02:09.499Z,0
2017-04-11T02:03:09.551Z,0
2017-04-11T02:04:09.607Z,0
2017-04-11T02:05:09.662Z,0
2017-04-11T02:06:09.705Z,0
2017-04-11T02:07:09.756Z,0
2017-04-11T02:08:23.190Z,0
2017-04-11T02:09:10.076Z,0
2017-04-11T02:10:09.611Z,0
2017-04-11T02:11:09.965Z,0
2017-04-11T02:12:10.018Z,0
2017-04-11T02:13:09.767Z,0
2017-04-11T02:14:09.821Z,0
2017-04-11T02:15:10.178Z,0
2017-04-11T02:16:09.934Z,0
2017-04-11T02:17:10.285Z,0
2017-04-11T02:18:10.338Z,0
2017-04-11T02:19:10.391Z,0
2017-04-11T02:20:10.447Z,0
2017-04-11T02:21:10.494Z,0
2017-04-11T02:22:10.248Z,0
2017-04-11T02:23:10.603Z,0
2017-04-11T02:24:10.664Z,0
2017-04-11T02:25:10.715Z,0
2017-04-11T02:26:10.759Z,0
2017-04-11T02:27:10.815Z,0
2017-04-11T02:28:10.884Z,0
2017-04-11T02:29:10.924Z,0
2017-04-11T02:30:10.675Z,0
2017-04-11T02:31:10.718Z,0
2017-04-11T02:32:11.085Z,0
2017-04-11T02:33:11.129Z,0
2017-04-11T02:34:11.182Z,0
2017-04-11T02:35:11.234Z,0
2017-04-11T02:36:11.284Z,0
2017-04-11T02:37:11.343Z,0
2017-04-11T02:38:11.392Z,0
2017-04-11T02:39:11.454Z,0
2017-04-11T02:40:11.198Z,0
2017-04-11T02:41:11.554Z,0
2017-04-11T02:42:11.606Z,0
2017-04-11T02:43:11.698Z,0
2017-04-11T02:44:11.711Z,0
2017-04-11T02:45:11.763Z,0
2017-04-11T02:46:11.821Z,0
2017-04-11T02:47:11.870Z,0
2017-04-11T02:48:11.925Z,0
2017-04-11T02:49:11.975Z,0
2017-04-11T02:50:12.029Z,0
2017-04-11T02:51:12.089Z,0
2017-04-11T02:52:12.134Z,0
2017-04-11T02:53:12.187Z,0
2017-04-11T02:54:11.940Z,0
2017-04-11T02:55:11.992Z,0
2017-04-11T02:56:12.040Z,0
2017-04-11T02:57:12.400Z,0
2017-04-11T02:58:12.154Z,0
2017-04-11T02:59:12.516Z,0
2017-04-11T03:00:12.559Z,0
2017-04-11T03:01:12.311Z,0
2017-04-11T03:02:12.661Z,0
2017-04-11T03:03:12.717Z,0
2017-04-11T03:04:12.770Z,0
2017-04-11T03:05:12.823Z,0
2017-04-11T03:06:12.883Z,0
2017-04-11T03:07:12.928Z,0
2017-04-11T03:08:12.976Z,0
2017-04-11T03:09:13.037Z,0
2017-04-11T03:10:12.784Z,0
2017-04-11T03:11:13.145Z,0
2017-04-11T03:12:13.191Z,0
2017-04-11T03:13:13.245Z,0
2017-04-11T03:14:12.996Z,0
2017-04-11T03:15:13.349Z,0
2017-04-11T03:16:13.407Z,0
2017-04-11T03:17:13.457Z,0
2017-04-11T03:18:13.513Z,0
2017-04-11T03:19:13.564Z,0
2017-04-11T03:20:13.615Z,0
2017-04-11T03:21:13.668Z,0
2017-04-11T03:22:13.722Z,0
2017-04-11T03:23:13.770Z,0
2017-04-11T03:24:13.824Z,0
2017-04-11T03:25:13.882Z,0
2017-04-11T03:26:13.930Z,0
2017-04-11T03:27:13.985Z,0
2017-04-11T03:28:14.040Z,0
2017-04-11T03:29:14.095Z,0
2017-04-11T03:30:14.149Z,0
2017-04-11T03:31:14.193Z,0
2017-04-11T03:32:14.250Z,0
2017-04-11T03:33:14.298Z,0
2017-04-11T03:34:14.351Z,0
2017-04-11T03:35:14.409Z,0
2017-04-11T03:36:14.455Z,0
2017-04-11T03:37:14.509Z,0
2017-04-11T03:38:14.265Z,0
2017-04-11T03:39:14.623Z,0
2017-04-11T03:40:14.671Z,0
2017-04-11T03:41:14.719Z,0
2017-04-11T03:42:14.774Z,0
2017-04-11T03:43:14.829Z,0
2017-04-11T03:44:14.880Z,0
2017-04-11T03:45:14.929Z,0
2017-04-11T03:46:14.988Z,0
2017-04-11T03:47:15.036Z,0
2017-04-11T03:48:14.789Z,0
2017-04-11T03:49:15.144Z,0
2017-04-11T03:50:15.194Z,0
2017-04-11T03:51:15.250Z,0
2017-04-11T03:52:15.301Z,0
2017-04-11T03:53:15.352Z,0
2017-04-11T03:54:15.406Z,0
2017-04-11T03:55:15.155Z,0
2017-04-11T03:56:15.519Z,0
2017-04-11T03:57:15.568Z,0
2017-04-11T03:58:15.612Z,0
2017-04-11T03:59:15.671Z,0
2017-04-11T04:00:15.722Z,0
2017-04-11T04:01:15.777Z,0
2017-04-11T04:02:15.828Z,0
2017-04-11T04:03:15.879Z,0
2017-04-11T04:04:15.930Z,0
2017-04-11T04:05:15.985Z,0
2017-04-11T04:06:16.045Z,0
2017-04-11T04:07:16.094Z,0
2017-04-11T04:08:16.143Z,0
2017-04-11T04:09:16.211Z,0
2017-04-11T04:10:16.244Z,0
2017-04-11T04:11:16.304Z,0
2017-04-11T04:12:16.358Z,0
2017-04-11T04:13:16.406Z,0
2017-04-11T04:14:16.163Z,0
2017-04-11T04:15:16.522Z,0
2017-04-11T04:16:16.565Z,0
2017-04-11T04:17:16.616Z,0
2017-04-11T04:18:16.667Z,4
2017-04-11T04:19:16.725Z,4
2017-04-11T04:20:16.775Z,4
2017-04-11T04:21:16.828Z,4
2017-04-11T04:22:16.882Z,4
2017-04-11T04:23:16.936Z,4
2017-04-11T04:24:16.680Z,8
2017-04-11T04:25:17.037Z,8
2017-04-11T04:26:17.089Z,8
2017-04-11T04:27:17.139Z,8
2017-04-11T04:28:17.197Z,12
2017-04-11T04:29:17.247Z,12
2017-04-11T04:30:17.300Z,16
2017-04-11T04:31:17.348Z,16
2017-04-11T04:32:17.403Z,16
2017-04-11T04:33:17.494Z,16
2017-04-11T04:34:17.508Z,16
2017-04-11T04:35:17.561Z,20
2017-04-11T04:36:17.610Z,24
2017-04-11T04:37:17.661Z,28
2017-04-11T04:38:17.714Z,36
2017-04-11T04:39:17.771Z,44
2017-04-11T04:40:17.825Z,48
2017-04-11T04:41:17.872Z,56
2017-04-11T04:42:17.971Z,68
2017-04-11T04:43:17.974Z,68
2017-04-11T04:44:18.030Z,72
2017-04-11T04:45:18.080Z,72
2017-04-11T04:46:18.136Z,68
2017-04-11T04:47:18.189Z,72
2017-04-11T04:48:18.240Z,84
2017-04-11T04:49:18.291Z,104
2017-04-11T04:50:18.344Z,120
2017-04-11T04:51:18.404Z,136
2017-04-11T04:52:18.448Z,136
2017-04-11T04:53:18.502Z,128
2017-04-11T04:54:18.556Z,124
2017-04-11T04:55:18.603Z,132
2017-04-11T04:56:18.663Z,120
2017-04-11T04:57:18.720Z,120
2017-04-11T04:58:18.766Z,112
2017-04-11T04:59:18.818Z,124
2017-04-11T05:00:18.869Z,136
2017-04-11T05:01:18.924Z,152
2017-04-11T05:02:18.977Z,180
2017-04-11T05:03:19.029Z,224
2017-04-11T05:04:19.079Z,284
2017-04-11T05:05:19.135Z,312
2017-04-11T05:06:18.884Z,308
2017-04-11T05:07:19.277Z,296
2017-04-11T05:08:19.290Z,296
2017-04-11T05:09:19.042Z,308
2017-04-11T05:10:19.403Z,372
2017-04-11T05:11:19.456Z,460
2017-04-11T05:12:19.500Z,520
2017-04-11T05:13:19.562Z,572
2017-04-11T05:14:19.608Z,564
2017-04-11T05:15:19.657Z,620
2017-04-11T05:16:19.712Z,692
2017-04-11T05:17:19.765Z,652
2017-04-11T05:18:19.820Z,572
2017-04-11T05:19:19.869Z,536
2017-04-11T05:20:19.920Z,500
2017-04-11T05:21:19.977Z,472
2017-04-11T05:22:20.025Z,448
2017-04-11T05:23:20.079Z,460
2017-04-11T05:24:19.834Z,492
2017-04-11T05:25:20.188Z,416
2017-04-11T05:26:20.235Z,396
2017-04-11T05:27:19.986Z,400
2017-04-11T05:28:20.345Z,364
2017-04-11T05:29:20.396Z,368
2017-04-11T05:30:20.446Z,420
2017-04-11T05:31:20.502Z,464
2017-04-11T05:32:20.554Z,512
2017-04-11T05:33:20.644Z,552
2017-04-11T05:34:20.660Z,760
2017-04-11T05:35:20.709Z,1036
2017-04-11T05:36:20.764Z,1156
2017-04-11T05:37:20.822Z,1820
2017-04-11T05:38:20.867Z,1244
2017-04-11T05:39:20.923Z,932
2017-04-11T05:40:20.975Z,936
2017-04-11T05:41:21.030Z,1036
2017-04-11T05:42:21.076Z,1016
2017-04-11T05:43:21.132Z,1140
2017-04-11T05:44:21.182Z,1260
2017-04-11T05:45:21.236Z,1484
2017-04-11T05:46:21.292Z,1260
2017-04-11T05:47:21.041Z,1192
2017-04-11T05:48:21.393Z,1252
2017-04-11T05:49:21.447Z,1384
2017-04-11T05:50:21.500Z,1668
2017-04-11T05:51:21.550Z,1412
2017-04-11T05:52:21.601Z,1204
2017-04-11T05:53:21.663Z,1124
2017-04-11T05:54:21.710Z,900
2017-04-11T05:55:21.760Z,1072
2017-04-11T05:56:21.508Z,1152
2017-04-11T05:57:21.561Z,992
2017-04-11T05:58:21.913Z,1076
2017-04-11T05:59:21.966Z,1144
2017-04-11T06:00:22.021Z,1524
2017-04-11T06:01:22.081Z,1664
2017-04-11T06:02:22.121Z,2076
2017-04-11T06:03:22.179Z,2436
2017-04-11T06:04:22.229Z,2500
2017-04-11T06:05:22.292Z,2012
2017-04-11T06:06:22.336Z,1832
2017-04-11T06:07:22.387Z,1980
2017-04-11T06:08:22.439Z,1964
2017-04-11T06:09:22.492Z,1632
2017-04-11T06:10:22.543Z,1772
2017-04-11T06:11:22.293Z,1696
2017-04-11T06:12:22.649Z,1808
2017-04-11T06:13:22.409Z,1596
2017-04-11T06:14:22.455Z,1804
2017-04-11T06:15:22.810Z,1700
2017-04-11T06:16:22.869Z,2176
2017-04-11T06:17:22.908Z,2880
2017-04-11T06:18:22.667Z,2556
2017-04-11T06:19:23.022Z,3228
2017-04-11T06:20:23.068Z,3580
2017-04-11T06:21:23.126Z,3352
2017-04-11T06:22:22.874Z,2868
2017-04-11T06:23:23.225Z,2800
2017-04-11T06:24:23.278Z,2608
2017-04-11T06:25:23.328Z,2848
2017-04-11T06:26:23.383Z,3732
2017-04-11T06:27:23.439Z,3036
2017-04-11T06:28:23.498Z,2788
2017-04-11T06:29:23.542Z,2568
2017-04-11T06:30:23.595Z,2472
2017-04-11T06:31:23.647Z,2432
2017-04-11T06:32:23.700Z,2000
2017-04-11T06:33:23.752Z,1960
2017-04-11T06:34:23.803Z,2156
2017-04-11T06:35:23.861Z,2132
2017-04-11T06:36:23.909Z,2284
2017-04-11T06:37:23.963Z,2464
2017-04-11T06:38:24.016Z,2272
2017-04-11T06:39:24.069Z,2232
2017-04-11T06:40:24.122Z,2512
2017-04-11T06:41:24.177Z,2280
2017-04-11T06:42:24.229Z,2384
2017-04-11T06:43:24.281Z,3580
2017-04-11T06:44:24.333Z,3964
2017-04-11T06:45:24.385Z,3192
2017-04-11T06:46:24.440Z,2580
2017-04-11T06:47:24.492Z,2172
2017-04-11T06:48:24.548Z,1888
2017-04-11T06:49:24.598Z,1660
2017-04-11T06:50:24.647Z,1488
2017-04-11T06:51:24.710Z,1476
2017-04-11T06:52:24.757Z,1556
2017-04-11T06:53:24.816Z,1644
2017-04-11T06:54:24.862Z,1912
2017-04-11T06:55:24.912Z,2720
2017-04-11T06:56:24.969Z,3292
2017-04-11T06:57:25.019Z,3228
2017-04-11T06:58:25.070Z,3332
2017-04-11T06:59:25.128Z,2968
2017-04-11T07:00:25.211Z,4084
2017-04-11T07:01:25.241Z,3888
2017-04-11T07:02:25.289Z,4040
2017-04-11T07:03:25.338Z,4228
2017-04-11T07:04:25.385Z,5092
2017-04-11T07:05:25.442Z,5816
2017-04-11T07:06:25.493Z,5600
2017-04-11T07:07:25.546Z,4364
2017-04-11T07:08:25.602Z,3404
2017-04-11T07:09:25.361Z,3764
2017-04-11T07:10:25.707Z,3568
2017-04-11T07:11:25.760Z,3424
2017-04-11T07:12:25.510Z,3236
2017-04-11T07:13:25.560Z,3156
2017-04-11T07:14:25.913Z,4336
2017-04-11T07:15:25.966Z,3800
2017-04-11T07:16:26.020Z,4224
2017-04-11T07:17:26.071Z,3984
2017-04-11T07:18:26.125Z,3692
2017-04-11T07:19:26.178Z,3536
2017-04-11T07:20:26.232Z,3072
2017-04-11T07:21:26.287Z,2736
2017-04-11T07:22:26.338Z,2560
2017-04-11T07:23:26.392Z,2440
2017-04-11T07:24:26.443Z,2968
2017-04-11T07:25:26.503Z,3612
2017-04-11T07:26:26.555Z,3636
2017-04-11T07:27:26.606Z,3668
2017-04-11T07:28:26.656Z,3524
2017-04-11T07:29:26.708Z,3752
2017-04-11T07:30:26.760Z,4096
2017-04-11T07:31:26.815Z,3220
2017-04-11T07:32:26.872Z,2632
2017-04-11T07:33:26.928Z,2632
2017-04-11T07:34:26.967Z,3160
2017-04-11T07:35:27.022Z,3948
2017-04-11T07:36:27.077Z,4264
2017-04-11T07:37:27.134Z,3996
2017-04-11T07:38:27.181Z,3140
2017-04-11T07:39:27.236Z,3152
2017-04-11T07:40:27.293Z,3360
2017-04-11T07:41:27.349Z,3344
2017-04-11T07:42:27.399Z,3748
2017-04-11T07:43:27.453Z,3864
2017-04-11T07:44:27.503Z,3296
2017-04-11T07:45:27.554Z,3084
2017-04-11T07:46:27.306Z,3180
2017-04-11T07:47:27.662Z,2996
2017-04-11T07:48:27.723Z,2892
2017-04-11T07:49:27.769Z,2992
2017-04-11T07:50:27.823Z,2724
2017-04-11T07:51:27.878Z,3296
2017-04-11T07:52:27.927Z,3676
2017-04-11T07:53:27.985Z,4024
2017-04-11T07:54:28.042Z,3620
2017-04-11T07:55:28.087Z,3328
2017-04-11T07:56:28.142Z,3328
2017-04-11T07:57:28.199Z,3824
2017-04-11T07:58:28.246Z,4316
2017-04-11T07:59:28.303Z,4568
2017-04-11T08:00:28.349Z,4272
2017-04-11T08:01:28.405Z,4692
2017-04-11T08:02:28.461Z,4784
2017-04-11T08:03:28.510Z,4264
2017-04-11T08:04:28.566Z,5020
2017-04-11T08:05:28.622Z,4120
2017-04-11T08:06:28.369Z,4052
2017-04-11T08:07:28.723Z,3556
2017-04-11T08:08:28.784Z,3116
2017-04-11T08:09:28.530Z,3116
2017-04-11T08:10:28.882Z,3796
2017-04-11T08:11:28.638Z,4404
2017-04-11T08:12:28.992Z,3840
2017-04-11T08:13:29.047Z,3224
2017-04-11T08:14:29.098Z,3356
2017-04-11T08:15:28.845Z,3592
2017-04-11T08:16:28.902Z,4580
2017-04-11T08:17:29.258Z,4064
2017-04-11T08:18:29.311Z,3044
2017-04-11T08:19:29.366Z,3268
2017-04-11T08:20:29.415Z,4420
2017-04-11T08:21:29.472Z,3436
2017-04-11T08:22:29.523Z,3336
2017-04-11T08:23:29.282Z,3612
2017-04-11T08:24:29.631Z,3860
2017-04-11T08:25:29.686Z,3288
2017-04-11T08:26:29.735Z,3460
2017-04-11T08:27:29.795Z,4840
2017-04-11T08:28:29.545Z,5732
2017-04-11T08:29:29.906Z,5668
2017-04-11T08:30:29.952Z,6296
2017-04-11T08:31:29.709Z,5236
2017-04-11T08:32:29.756Z,4768
2017-04-11T08:33:30.113Z,5232
2017-04-11T08:34:30.166Z,5104
2017-04-11T08:35:30.218Z,4740
2017-04-11T08:36:30.274Z,4392
2017-04-11T08:37:30.326Z,4532
2017-04-11T08:38:30.086Z,4828
2017-04-11T08:39:30.715Z,4528
2017-04-11T08:40:30.485Z,4532
2017-04-11T08:41:30.542Z,5156
2017-04-11T08:42:30.594Z,4812
2017-04-11T08:43:30.657Z,4552
2017-04-11T08:44:30.698Z,4408
2017-04-11T08:45:30.754Z,4804
2017-04-11T08:46:30.805Z,5076
2017-04-11T08:47:30.862Z,4680
2017-04-11T08:48:30.920Z,4620
2017-04-11T08:49:30.967Z,5024
2017-04-11T08:50:31.021Z,5072
2017-04-11T08:51:31.090Z,5948
2017-04-11T08:52:30.525Z,5412
2017-04-11T08:53:31.180Z,6440
2017-04-11T08:54:31.236Z,5824
2017-04-11T08:55:31.296Z,7388
2017-04-11T08:56:31.340Z,6776
2017-04-11T08:57:31.402Z,6692
2017-04-11T08:58:31.452Z,5968
2017-04-11T08:59:31.506Z,4340
2017-04-11T09:00:31.558Z,4428
2017-04-11T09:01:31.614Z,4920
2017-04-11T09:02:31.663Z,5520
2017-04-11T09:03:31.415Z,5168
2017-04-11T09:04:31.776Z,4696
2017-04-11T09:05:31.521Z,5996
2017-04-11T09:06:31.876Z,7000
2017-04-11T09:07:31.936Z,7336
2017-04-11T09:08:31.382Z,6588
2017-04-11T09:09:32.046Z,5816
2017-04-11T09:10:31.792Z,5712
2017-04-11T09:11:32.174Z,6788
2017-04-11T09:12:32.218Z,6476
2017-04-11T09:13:31.954Z,4828
2017-04-11T09:14:32.332Z,4752
2017-04-11T09:15:32.363Z,5408
2017-04-11T09:16:32.121Z,6540
2017-04-11T09:17:32.169Z,5692
2017-04-11T09:18:32.227Z,5756
2017-04-11T09:19:32.582Z,6416
2017-04-11T09:20:32.031Z,5940
2017-04-11T09:21:32.685Z,4880
2017-04-11T09:22:32.435Z,4692
2017-04-11T09:23:32.489Z,6336
2017-04-11T09:24:32.843Z,6360
2017-04-11T09:25:32.898Z,6196
2017-04-11T09:26:32.949Z,5204
2017-04-11T09:27:33.005Z,4380
2017-04-11T09:28:33.062Z,4140
2017-04-11T09:29:32.811Z,6044
2017-04-11T09:30:32.867Z,7328
2017-04-11T09:31:32.918Z,6272
2017-04-11T09:32:33.280Z,5348
2017-04-11T09:33:33.333Z,5500
2017-04-11T09:34:33.391Z,6360
2017-04-11T09:35:33.440Z,11384
2017-04-11T09:36:33.498Z,7784
2017-04-11T09:37:33.543Z,7980
2017-04-11T09:38:33.608Z,6440
2017-04-11T09:39:33.652Z,6200
2017-04-11T09:40:33.706Z,5208
2017-04-11T09:41:33.772Z,4556
2017-04-11T09:42:33.816Z,6200
2017-04-11T09:43:33.866Z,7060
2017-04-11T09:44:33.927Z,5640
2017-04-11T09:45:33.676Z,6476
2017-04-11T09:46:34.028Z,5116
2017-04-11T09:47:33.780Z,5176
2017-04-11T09:48:33.839Z,5228
2017-04-11T09:49:34.194Z,5896
2017-04-11T09:50:33.944Z,6832
2017-04-11T09:51:34.000Z,6232
2017-04-11T09:52:34.053Z,6164
2017-04-11T09:53:34.410Z,6676
2017-04-11T09:54:34.464Z,6336
2017-04-11T09:55:34.518Z,6056
2017-04-11T09:56:34.570Z,6468
2017-04-11T09:57:34.326Z,6148
2017-04-11T09:58:34.376Z,6436
2017-04-11T09:59:34.734Z,6652
2017-04-11T10:00:34.484Z,6268
2017-04-11T10:01:34.843Z,6672
2017-04-11T10:02:34.292Z,5788
2017-04-11T10:03:34.648Z,5428
2017-04-11T10:04:35.003Z,5932
2017-04-11T10:05:35.056Z,8172
2017-04-11T10:06:34.816Z,5948
2017-04-11T10:07:35.166Z,5600
2017-04-11T10:08:35.226Z,9120
2017-04-11T10:09:35.278Z,10472
2017-04-11T10:10:35.029Z,10448
2017-04-11T10:11:35.081Z,11268
2017-04-11T10:12:35.439Z,10444
2017-04-11T10:13:35.495Z,9180
2017-04-11T10:14:35.541Z,9128
2017-04-11T10:15:35.592Z,7912
2017-04-11T10:16:35.655Z,8356
2017-04-11T10:17:35.411Z,10140
2017-04-11T10:18:35.454Z,8816
2017-04-11T10:19:35.516Z,8516
2017-04-11T10:20:35.877Z,8800
2017-04-11T10:21:35.925Z,7260
2017-04-11T10:22:35.976Z,6544
2017-04-11T10:23:36.030Z,6000
2017-04-11T10:24:36.086Z,6676
2017-04-11T10:25:36.141Z,6788
2017-04-11T10:26:36.193Z,5940
2017-04-11T10:27:36.251Z,4824
2017-04-11T10:28:36.307Z,4608
2017-04-11T10:29:36.356Z,4916
2017-04-11T10:30:36.110Z,4744
2017-04-11T10:31:36.166Z,4512
2017-04-11T10:32:36.220Z,5000
2017-04-11T10:33:36.576Z,4644
2017-04-11T10:34:36.626Z,4508
2017-04-11T10:35:36.382Z,5684
2017-04-11T10:36:36.134Z,6468
2017-04-11T10:37:36.491Z,6116
2017-04-11T10:38:36.845Z,7000
2017-04-11T10:39:36.900Z,6592
2017-04-11T10:40:36.350Z,7020
2017-04-11T10:41:36.709Z,7464
2017-04-11T10:42:37.064Z,7508
2017-04-11T10:43:37.118Z,7396
2017-04-11T10:44:37.172Z,6880
2017-04-11T10:45:37.232Z,7140
2017-04-11T10:46:37.284Z,7004
2017-04-11T10:47:37.030Z,9200
2017-04-11T10:48:37.426Z,8108
2017-04-11T10:49:37.446Z,8472
2017-04-11T10:50:37.496Z,8328
2017-04-11T10:51:37.550Z,8024
2017-04-11T10:52:37.305Z,8656
2017-04-11T10:53:37.358Z,8964
2017-04-11T10:54:37.410Z,11428
2017-04-11T10:55:37.773Z,8980
2017-04-11T10:56:37.525Z,14092
2017-04-11T10:57:37.876Z,11520
2017-04-11T10:58:37.930Z,11160
2017-04-11T10:59:37.988Z,10576
2017-04-11T11:00:38.035Z,11376
2017-04-11T11:01:38.109Z,13076
2017-04-11T11:02:38.157Z,10200
2017-04-11T11:03:38.201Z,8312
2017-04-11T11:04:38.258Z,8820
2017-04-11T11:05:38.010Z,9064
2017-04-11T11:06:38.367Z,9756
2017-04-11T11:07:38.125Z,9736
2017-04-11T11:08:38.173Z,10200
2017-04-11T11:09:38.533Z,10144
2017-04-11T11:10:38.584Z,10268
2017-04-11T11:11:38.643Z,9348
2017-04-11T11:12:38.700Z,7872
2017-04-11T11:13:38.749Z,7080
2017-04-11T11:14:38.820Z,6228
2017-04-11T11:15:38.859Z,6096
2017-04-11T11:16:38.912Z,6064
2017-04-11T11:17:38.971Z,6004
2017-04-11T11:18:39.034Z,5700
2017-04-11T11:19:39.084Z,5516
2017-04-11T11:20:39.134Z,5280
2017-04-11T11:21:38.885Z,5084
2017-04-11T11:22:38.639Z,4900
2017-04-11T11:23:38.717Z,4644
2017-04-11T11:24:39.358Z,4548
2017-04-11T11:25:39.407Z,4692
2017-04-11T11:26:39.460Z,4896
2017-04-11T11:27:39.518Z,4956
2017-04-11T11:28:39.570Z,4992
2017-04-11T11:29:39.626Z,5468
2017-04-11T11:30:39.374Z,5516
2017-04-11T11:31:39.737Z,5464
2017-04-11T11:32:39.788Z,5288
2017-04-11T11:33:39.545Z,4772
2017-04-11T11:34:39.903Z,4320
2017-04-11T11:35:39.652Z,4128
2017-04-11T11:36:40.011Z,4036
2017-04-11T11:37:40.067Z,4188
2017-04-11T11:38:40.121Z,4924
2017-04-11T11:39:39.869Z,6500
2017-04-11T11:40:39.929Z,9836
2017-04-11T11:41:40.320Z,9328
2017-04-11T11:42:40.339Z,9860
2017-04-11T11:43:40.395Z,15404
2017-04-11T11:44:40.444Z,14928
2017-04-11T11:45:39.895Z,9976
2017-04-11T11:46:40.251Z,9436
2017-04-11T11:47:40.609Z,8480
2017-04-11T11:48:40.678Z,8124
2017-04-11T11:49:40.715Z,8088
2017-04-11T11:50:40.466Z,8804
2017-04-11T11:51:40.826Z,7604
2017-04-11T11:52:40.276Z,7072
2017-04-11T11:53:40.631Z,8696
2017-04-11T11:54:40.988Z,9364
2017-04-11T11:55:40.738Z,11100
2017-04-11T11:56:41.097Z,13376
2017-04-11T11:57:41.152Z,15104
2017-04-11T11:58:41.204Z,11320
2017-04-11T11:59:41.266Z,8644
2017-04-11T12:00:41.317Z,7728
2017-04-11T12:01:41.370Z,7964
2017-04-11T12:02:41.121Z,9496
2017-04-11T12:03:41.180Z,10568
2017-04-11T12:04:41.531Z,10504
2017-04-11T12:05:41.586Z,10236
2017-04-11T12:06:41.647Z,10104
2017-04-11T12:07:41.706Z,9416
2017-04-11T12:08:41.752Z,8680
2017-04-11T12:09:41.507Z,7920
2017-04-11T12:10:41.560Z,10396
2017-04-11T12:11:41.922Z,9984
2017-04-11T12:12:41.978Z,11284
2017-04-11T12:13:42.028Z,6728
2017-04-11T12:14:42.083Z,5440
2017-04-11T12:15:42.141Z,7012
2017-04-11T12:16:42.196Z,9744
2017-04-11T12:17:41.983Z,8440
2017-04-11T12:18:42.006Z,10408
2017-04-11T12:19:41.756Z,10616
2017-04-11T12:20:42.419Z,7936
2017-04-11T12:21:42.165Z,6936
2017-04-11T12:22:42.225Z,7176
2017-04-11T12:23:42.580Z,8072
2017-04-11T12:24:42.639Z,8836
2017-04-11T12:25:42.693Z,6956
2017-04-11T12:26:42.743Z,7452
2017-04-11T12:27:42.795Z,7468
2017-04-11T12:28:42.849Z,12332
2017-04-11T12:29:42.905Z,8044
2017-04-11T12:30:42.665Z,8384
2017-04-11T12:31:42.719Z,10124
2017-04-11T12:32:43.076Z,7924
2017-04-11T12:33:42.830Z,13228
2017-04-11T12:34:43.185Z,6236
2017-04-11T12:35:43.243Z,11920
2017-04-11T12:36:43.296Z,8256
2017-04-11T12:37:43.044Z,13136
2017-04-11T12:38:43.409Z,9192
2017-04-11T12:39:43.467Z,10676
2017-04-11T12:40:43.522Z,6880
2017-04-11T12:41:43.573Z,6292
2017-04-11T12:42:43.625Z,5428
2017-04-11T12:43:43.680Z,6620
2017-04-11T12:44:43.737Z,7720
2017-04-11T12:45:43.794Z,13164
2017-04-11T12:46:43.847Z,5368
2017-04-11T12:47:44.107Z,5780
2017-04-11T12:48:43.957Z,9304
2017-04-11T12:49:44.012Z,6268
2017-04-11T12:50:44.069Z,6880
2017-04-11T12:51:44.125Z,6736
2017-04-11T12:52:44.181Z,9400
2017-04-11T12:53:44.236Z,5780
2017-04-11T12:54:44.291Z,7364
2017-04-11T12:55:44.342Z,5808
2017-04-11T12:56:44.400Z,4704
2017-04-11T12:57:44.454Z,10608
2017-04-11T12:58:44.512Z,4552
2017-04-11T12:59:44.562Z,5828
2017-04-11T13:00:44.621Z,7472
2017-04-11T13:01:44.674Z,5576
2017-04-11T13:02:44.732Z,5152
2017-04-11T13:03:44.782Z,8956
2017-04-11T13:04:44.843Z,4008
2017-04-11T13:05:44.893Z,4844
2017-04-11T13:06:44.945Z,6656
2017-04-11T13:07:44.702Z,6204
2017-04-11T13:08:45.063Z,6296
2017-04-11T13:09:45.154Z,5032
2017-04-11T13:10:45.173Z,6704
2017-04-11T13:11:45.226Z,5920
2017-04-11T13:12:45.279Z,6600
2017-04-11T13:13:45.337Z,7792
2017-04-11T13:14:45.394Z,9364
2017-04-11T13:15:45.646Z,5676
2017-04-11T13:16:45.701Z,7436
2017-04-11T13:17:45.559Z,10568
2017-04-11T13:18:45.616Z,6784
2017-04-11T13:19:45.880Z,4480
2017-04-11T13:20:45.934Z,6108
2017-04-11T13:21:45.775Z,4888
2017-04-11T13:22:45.833Z,4856
2017-04-11T13:23:45.886Z,5020
2017-04-11T13:24:59.037Z,4608
2017-04-11T13:25:45.997Z,5116
2017-04-11T13:26:46.051Z,7412
2017-04-11T13:27:46.106Z,6560
2017-04-11T13:28:46.163Z,7328
2017-04-11T13:29:46.217Z,12004
2017-04-11T13:30:46.271Z,6056
2017-04-11T13:31:46.024Z,4820
2017-04-11T13:32:46.383Z,6700
2017-04-11T13:33:46.440Z,7416
2017-04-11T13:34:46.487Z,7304
2017-04-11T13:35:46.242Z,5284
2017-04-11T13:36:46.297Z,7356
2017-04-11T13:37:46.659Z,7996
2017-04-11T13:38:46.709Z,5656
2017-04-11T13:39:46.764Z,3172
2017-04-11T13:40:46.858Z,3040
2017-04-11T13:41:46.871Z,3796
2017-04-11T13:42:46.926Z,3148
2017-04-11T13:43:46.989Z,3912
2017-04-11T13:44:46.737Z,3988
2017-04-11T13:45:47.092Z,5872
2017-04-11T13:46:47.149Z,3668